createdAt,value
2023-05-12T00:02:03.610Z,8.50
2023-05-12T00:12:52.281Z,11.80
2023-05-12T00:23:37.751Z,9.90
2023-05-12T00:34:45.242Z,9.90
2023-05-12T00:44:54.734Z,10.50
2023-05-12T00:55:05.814Z,10.30
2023-05-12T01:05:15.450Z,11.80
2023-05-12T01:16:00.485Z,11.70
2023-05-12T01:26:11.517Z,9.40
2023-05-12T01:36:18.217Z,10.80
2023-05-12T01:46:23.433Z,12.10
2023-05-12T01:56:36.573Z,9.60
2023-05-12T02:07:27.369Z,9.90
2023-05-12T02:17:33.411Z,10.70
2023-05-12T02:27:45.347Z,9.90
2023-05-12T02:37:51.668Z,9.40
2023-05-12T02:48:08.204Z,8.40
2023-05-12T02:59:13.857Z,13.40
2023-05-12T03:09:42.235Z,8.20
2023-05-12T03:19:46.122Z,8.10
2023-05-12T03:30:35.803Z,8.20
2023-05-12T03:40:55.786Z,7.80
2023-05-12T03:51:01.874Z,11.40
2023-05-12T04:01:08.840Z,6.90
2023-05-12T04:11:14.350Z,5.10
2023-05-12T04:21:20.153Z,5.20
2023-05-12T04:32:27.560Z,4.50
2023-05-12T04:42:31.969Z,6.10
2023-05-12T04:52:40.256Z,3.70
2023-05-12T05:02:49.472Z,5.00
2023-05-12T05:13:03.279Z,3.70
2023-05-12T05:23:07.677Z,5.00
2023-05-12T05:33:14.347Z,5.70
2023-05-12T05:43:19.225Z,6.60
2023-05-12T05:54:26.686Z,7.50
2023-05-12T06:04:32.231Z,7.00
2023-05-12T06:14:41.238Z,7.00
2023-05-12T06:24:46.522Z,9.60
2023-05-12T06:35:32.057Z,6.20
2023-05-12T06:46:24.596Z,6.80
2023-05-12T06:56:30.560Z,6.00
2023-05-12T07:06:37.645Z,8.90
2023-05-12T07:17:46.172Z,9.00
2023-05-12T07:28:38.683Z,5.90
2023-05-12T07:38:45.900Z,7.40
2023-05-12T07:48:53.324Z,6.30
2023-05-12T07:59:02.612Z,4.90
2023-05-12T08:09:09.802Z,6.40
2023-05-12T08:19:14.969Z,8.10
2023-05-12T08:29:20.887Z,6.80
2023-05-12T08:39:31.339Z,7.30
2023-05-12T08:49:44.549Z,8.00
2023-05-12T08:59:59.565Z,7.20
2023-05-12T09:10:13.362Z,7.80
2023-05-12T09:20:31.797Z,5.00
2023-05-12T09:30:41.182Z,6.30
2023-05-12T09:40:48.566Z,8.80
2023-05-12T09:50:59.208Z,7.30
2023-05-12T10:01:21.713Z,6.60
2023-05-12T10:12:11.764Z,6.30
2023-05-12T10:23:20.746Z,12.90
2023-05-12T10:33:28.271Z,5.70
2023-05-12T10:43:44.136Z,5.80
2023-05-12T10:53:54.883Z,5.90
2023-05-12T11:05:29.722Z,6.80
2023-05-12T11:16:17.912Z,6.40
2023-05-12T11:26:31.729Z,5.80
2023-05-12T11:36:59.564Z,6.30
2023-05-12T11:48:16.742Z,7.30
2023-05-12T11:58:31.666Z,6.20
2023-05-12T12:08:41.163Z,5.50
2023-05-12T12:20:09.542Z,5.50
2023-05-12T12:30:16.190Z,6.80
2023-05-12T12:40:25.691Z,6.10
2023-05-12T12:50:39.566Z,7.70
2023-05-12T13:00:45.333Z,6.00
2023-05-12T13:10:51.258Z,6.90
2023-05-12T13:20:57.148Z,7.80
2023-05-12T13:31:03.586Z,5.50
2023-05-12T13:42:28.460Z,6.60
2023-05-12T13:53:35.288Z,5.70
2023-05-12T14:03:51.543Z,4.40
2023-05-12T14:14:01.023Z,5.60
2023-05-12T14:24:07.760Z,5.40
2023-05-12T14:34:16.671Z,5.40
2023-05-12T14:44:23.791Z,6.40
2023-05-12T14:54:31.288Z,8.60
2023-05-12T15:04:37.285Z,9.60
2023-05-12T15:14:41.618Z,6.60
2023-05-12T15:24:49.283Z,7.50
2023-05-12T15:34:57.987Z,6.80
2023-05-12T15:45:06.407Z,6.50
2023-05-12T15:56:28.403Z,5.50
2023-05-12T16:07:36.490Z,5.20
2023-05-12T16:17:43.713Z,10.90
2023-05-12T16:27:49.018Z,12.70
2023-05-12T16:38:53.710Z,9.90
2023-05-12T16:48:58.513Z,10.00
2023-05-12T16:59:07.918Z,11.30
2023-05-12T17:09:15.360Z,12.00
2023-05-12T17:19:19.051Z,9.80
2023-05-12T17:29:28.715Z,9.80
2023-05-12T17:39:33.082Z,12.10
2023-05-12T17:49:42.478Z,15.10
2023-05-12T17:59:49.066Z,10.60
2023-05-12T18:10:54.110Z,10.00
2023-05-12T18:21:01.297Z,21.40
2023-05-12T18:31:28.550Z,18.10
2023-05-12T18:42:19.306Z,21.10
2023-05-12T18:52:25.472Z,30.70
2023-05-12T19:03:10.133Z,38.50
2023-05-12T19:13:19.715Z,13.30
2023-05-12T19:24:01.430Z,18.40
2023-05-12T19:35:12.568Z,11.90
2023-05-12T19:46:01.284Z,18.50
2023-05-12T19:56:54.650Z,17.60
2023-05-12T20:07:03.104Z,12.80
2023-05-12T20:17:48.649Z,10.40
2023-05-12T20:27:55.615Z,13.00
2023-05-12T20:38:04.719Z,11.80
2023-05-12T20:48:13.797Z,12.00
2023-05-12T20:58:25.691Z,12.20
2023-05-12T21:08:39.329Z,13.00
2023-05-12T21:18:46.384Z,13.00
2023-05-12T21:29:52.057Z,13.40
2023-05-12T21:39:59.316Z,14.80
2023-05-12T21:50:08.432Z,16.20
2023-05-12T22:00:20.555Z,12.90
2023-05-12T22:10:28.226Z,12.80
2023-05-12T22:20:59.412Z,30.30
2023-05-12T22:31:06.709Z,17.00
2023-05-12T22:42:21.964Z,18.50
2023-05-12T22:53:23.417Z,15.50
2023-05-12T23:03:37.537Z,12.40
2023-05-12T23:14:44.915Z,19.10
2023-05-12T23:25:33.102Z,20.60
2023-05-12T23:35:50.840Z,22.90
2023-05-12T23:45:56.289Z,25.00
2023-05-12T23:56:20.828Z,19.70
